sensor_id;sensor_type;location;lat;lon;timestamp;P1;durP1;ratioP1;P2;durP2;ratioP2
38693;SDS011;24447;43.460;25.744;2024-02-21T00:01:15;34.30;;;13.15;;
38693;SDS011;24447;43.460;25.744;2024-02-21T00:03:42;46.20;;;14.23;;
38693;SDS011;24447;43.460;25.744;2024-02-21T00:06:07;39.05;;;12.50;;
38693;SDS011;24447;43.460;25.744;2024-02-21T00:08:33;25.42;;;9.20;;
38693;SDS011;24447;43.460;25.744;2024-02-21T00:10:59;45.30;;;15.73;;
38693;SDS011;24447;43.460;25.744;2024-02-21T00:13:25;34.70;;;11.68;;
38693;SDS011;24447;43.460;25.744;2024-02-21T00:15:51;35.38;;;10.45;;
38693;SDS011;24447;43.460;25.744;2024-02-21T00:18:17;35.55;;;10.48;;
38693;SDS011;24447;43.460;25.744;2024-02-21T00:20:43;34.13;;;10.43;;
38693;SDS011;24447;43.460;25.744;2024-02-21T00:23:09;32.92;;;10.98;;
38693;SDS011;24447;43.460;25.744;2024-02-21T00:25:34;35.97;;;11.70;;
38693;SDS011;24447;43.460;25.744;2024-02-21T00:28:00;35.13;;;11.05;;
38693;SDS011;24447;43.460;25.744;2024-02-21T00:30:26;26.10;;;9.75;;
38693;SDS011;24447;43.460;25.744;2024-02-21T00:32:52;33.53;;;12.48;;
38693;SDS011;24447;43.460;25.744;2024-02-21T00:35:18;25.98;;;8.15;;
38693;SDS011;24447;43.460;25.744;2024-02-21T00:37:44;26.95;;;9.77;;
38693;SDS011;24447;43.460;25.744;2024-02-21T00:40:10;29.65;;;9.82;;
38693;SDS011;24447;43.460;25.744;2024-02-21T00:42:36;29.33;;;9.88;;
38693;SDS011;24447;43.460;25.744;2024-02-21T00:45:02;33.40;;;10.27;;
38693;SDS011;24447;43.460;25.744;2024-02-21T00:47:28;33.90;;;10.68;;
38693;SDS011;24447;43.460;25.744;2024-02-21T00:49:54;38.50;;;9.25;;
38693;SDS011;24447;43.460;25.744;2024-02-21T00:52:20;32.78;;;10.82;;
38693;SDS011;24447;43.460;25.744;2024-02-21T00:54:46;28.15;;;10.15;;
38693;SDS011;24447;43.460;25.744;2024-02-21T00:57:14;30.17;;;9.30;;
38693;SDS011;24447;43.460;25.744;2024-02-21T00:59:40;26.95;;;9.52;;
38693;SDS011;24447;43.460;25.744;2024-02-21T01:02:06;27.80;;;8.00;;
38693;SDS011;24447;43.460;25.744;2024-02-21T01:04:34;31.23;;;10.30;;
38693;SDS011;24447;43.460;25.744;2024-02-21T01:07:00;32.45;;;10.07;;
38693;SDS011;24447;43.460;25.744;2024-02-21T01:09:26;37.97;;;10.52;;
38693;SDS011;24447;43.460;25.744;2024-02-21T01:11:51;30.77;;;10.95;;
38693;SDS011;24447;43.460;25.744;2024-02-21T01:14:18;33.80;;;10.38;;
38693;SDS011;24447;43.460;25.744;2024-02-21T01:16:43;41.63;;;11.77;;
38693;SDS011;24447;43.460;25.744;2024-02-21T01:19:09;35.47;;;11.15;;
38693;SDS011;24447;43.460;25.744;2024-02-21T01:21:35;32.45;;;13.00;;
38693;SDS011;24447;43.460;25.744;2024-02-21T01:24:01;38.60;;;12.48;;
38693;SDS011;24447;43.460;25.744;2024-02-21T01:26:27;33.92;;;11.52;;
38693;SDS011;24447;43.460;25.744;2024-02-21T01:28:53;22.92;;;7.70;;
38693;SDS011;24447;43.460;25.744;2024-02-21T01:31:19;33.22;;;10.35;;
38693;SDS011;24447;43.460;25.744;2024-02-21T01:33:45;30.40;;;10.68;;
38693;SDS011;24447;43.460;25.744;2024-02-21T01:36:11;30.63;;;8.48;;
38693;SDS011;24447;43.460;25.744;2024-02-21T01:38:37;33.25;;;8.57;;
38693;SDS011;24447;43.460;25.744;2024-02-21T01:41:02;28.77;;;9.85;;
38693;SDS011;24447;43.460;25.744;2024-02-21T01:43:28;29.10;;;9.15;;
38693;SDS011;24447;43.460;25.744;2024-02-21T01:45:55;29.77;;;8.30;;
38693;SDS011;24447;43.460;25.744;2024-02-21T01:48:22;35.47;;;12.55;;
38693;SDS011;24447;43.460;25.744;2024-02-21T01:50:51;24.63;;;8.20;;
38693;SDS011;24447;43.460;25.744;2024-02-21T01:53:22;38.22;;;10.65;;
38693;SDS011;24447;43.460;25.744;2024-02-21T01:55:49;25.55;;;8.02;;
38693;SDS011;24447;43.460;25.744;2024-02-21T01:58:15;28.92;;;11.15;;
38693;SDS011;24447;43.460;25.744;2024-02-21T02:00:42;27.02;;;8.80;;
38693;SDS011;24447;43.460;25.744;2024-02-21T02:03:11;30.38;;;9.18;;
38693;SDS011;24447;43.460;25.744;2024-02-21T02:05:47;26.13;;;8.23;;
38693;SDS011;24447;43.460;25.744;2024-02-21T02:08:21;32.63;;;10.97;;
38693;SDS011;24447;43.460;25.744;2024-02-21T02:10:47;27.98;;;9.48;;
38693;SDS011;24447;43.460;25.744;2024-02-21T02:13:13;21.38;;;7.30;;
38693;SDS011;24447;43.460;25.744;2024-02-21T02:15:40;32.05;;;10.82;;
38693;SDS011;24447;43.460;25.744;2024-02-21T02:18:06;26.75;;;8.63;;
38693;SDS011;24447;43.460;25.744;2024-02-21T02:20:32;30.95;;;8.20;;
38693;SDS011;24447;43.460;25.744;2024-02-21T02:23:03;32.17;;;8.20;;
38693;SDS011;24447;43.460;25.744;2024-02-21T02:25:33;33.75;;;11.00;;
38693;SDS011;24447;43.460;25.744;2024-02-21T02:28:00;31.05;;;9.40;;
38693;SDS011;24447;43.460;25.744;2024-02-21T02:30:26;49.53;;;15.73;;
38693;SDS011;24447;43.460;25.744;2024-02-21T02:32:52;44.95;;;15.60;;
38693;SDS011;24447;43.460;25.744;2024-02-21T02:35:17;62.33;;;25.23;;
38693;SDS011;24447;43.460;25.744;2024-02-21T02:37:50;41.22;;;14.15;;
38693;SDS011;24447;43.460;25.744;2024-02-21T02:40:16;35.28;;;10.43;;
38693;SDS011;24447;43.460;25.744;2024-02-21T02:42:43;36.65;;;11.30;;
38693;SDS011;24447;43.460;25.744;2024-02-21T02:45:09;31.17;;;10.70;;
38693;SDS011;24447;43.460;25.744;2024-02-21T02:47:35;33.00;;;10.45;;
38693;SDS011;24447;43.460;25.744;2024-02-21T02:50:01;38.13;;;9.57;;
38693;SDS011;24447;43.460;25.744;2024-02-21T02:52:27;37.00;;;9.90;;
38693;SDS011;24447;43.460;25.744;2024-02-21T02:54:53;29.52;;;8.90;;
38693;SDS011;24447;43.460;25.744;2024-02-21T02:57:21;33.17;;;10.27;;
38693;SDS011;24447;43.460;25.744;2024-02-21T02:59:50;30.73;;;10.23;;
38693;SDS011;24447;43.460;25.744;2024-02-21T03:02:17;26.52;;;9.63;;
38693;SDS011;24447;43.460;25.744;2024-02-21T03:04:43;40.50;;;11.98;;
38693;SDS011;24447;43.460;25.744;2024-02-21T03:07:09;42.17;;;11.63;;
38693;SDS011;24447;43.460;25.744;2024-02-21T03:09:36;43.60;;;11.77;;
38693;SDS011;24447;43.460;25.744;2024-02-21T03:12:03;29.00;;;10.27;;
38693;SDS011;24447;43.460;25.744;2024-02-21T03:14:30;29.23;;;12.02;;
38693;SDS011;24447;43.460;25.744;2024-02-21T03:16:56;27.55;;;8.35;;
38693;SDS011;24447;43.460;25.744;2024-02-21T03:19:23;27.55;;;9.98;;
38693;SDS011;24447;43.460;25.744;2024-02-21T03:21:49;26.58;;;9.68;;
38693;SDS011;24447;43.460;25.744;2024-02-21T03:24:21;30.60;;;10.88;;
38693;SDS011;24447;43.460;25.744;2024-02-21T03:26:47;33.08;;;12.65;;
38693;SDS011;24447;43.460;25.744;2024-02-21T03:29:16;35.30;;;12.30;;
38693;SDS011;24447;43.460;25.744;2024-02-21T03:31:42;34.50;;;12.02;;
38693;SDS011;24447;43.460;25.744;2024-02-21T03:34:11;33.25;;;10.35;;
38693;SDS011;24447;43.460;25.744;2024-02-21T03:36:37;36.47;;;11.52;;
38693;SDS011;24447;43.460;25.744;2024-02-21T03:39:03;21.50;;;8.15;;
38693;SDS011;24447;43.460;25.744;2024-02-21T03:41:30;24.02;;;8.63;;
38693;SDS011;24447;43.460;25.744;2024-02-21T03:43:56;32.38;;;10.18;;
38693;SDS011;24447;43.460;25.744;2024-02-21T03:46:23;33.90;;;11.82;;
38693;SDS011;24447;43.460;25.744;2024-02-21T03:48:50;37.95;;;13.70;;
38693;SDS011;24447;43.460;25.744;2024-02-21T03:51:16;32.25;;;13.27;;
38693;SDS011;24447;43.460;25.744;2024-02-21T03:53:42;33.55;;;9.45;;
38693;SDS011;24447;43.460;25.744;2024-02-21T03:56:08;27.92;;;7.80;;
38693;SDS011;24447;43.460;25.744;2024-02-21T03:58:34;28.70;;;9.75;;
38693;SDS011;24447;43.460;25.744;2024-02-21T04:01:00;31.73;;;10.32;;
38693;SDS011;24447;43.460;25.744;2024-02-21T04:03:26;34.55;;;9.88;;
38693;SDS011;24447;43.460;25.744;2024-02-21T04:05:52;35.85;;;12.52;;
38693;SDS011;24447;43.460;25.744;2024-02-21T04:08:18;34.88;;;11.70;;
38693;SDS011;24447;43.460;25.744;2024-02-21T04:10:44;42.80;;;15.23;;
38693;SDS011;24447;43.460;25.744;2024-02-21T04:13:10;37.58;;;11.45;;
38693;SDS011;24447;43.460;25.744;2024-02-21T04:15:36;36.35;;;10.90;;
38693;SDS011;24447;43.460;25.744;2024-02-21T04:18:02;28.42;;;10.63;;
38693;SDS011;24447;43.460;25.744;2024-02-21T04:20:28;34.50;;;9.80;;
38693;SDS011;24447;43.460;25.744;2024-02-21T04:22:55;32.97;;;10.50;;
38693;SDS011;24447;43.460;25.744;2024-02-21T04:25:21;36.65;;;11.45;;
38693;SDS011;24447;43.460;25.744;2024-02-21T04:27:47;33.65;;;11.10;;
38693;SDS011;24447;43.460;25.744;2024-02-21T04:30:13;30.92;;;11.65;;
38693;SDS011;24447;43.460;25.744;2024-02-21T04:32:39;32.25;;;9.88;;
38693;SDS011;24447;43.460;25.744;2024-02-21T04:35:05;35.47;;;10.98;;
38693;SDS011;24447;43.460;25.744;2024-02-21T04:37:32;47.15;;;19.38;;
38693;SDS011;24447;43.460;25.744;2024-02-21T04:39:58;40.33;;;13.13;;
38693;SDS011;24447;43.460;25.744;2024-02-21T04:42:24;45.63;;;16.67;;
38693;SDS011;24447;43.460;25.744;2024-02-21T04:44:50;40.28;;;11.60;;
38693;SDS011;24447;43.460;25.744;2024-02-21T04:47:16;28.10;;;9.68;;
38693;SDS011;24447;43.460;25.744;2024-02-21T04:49:42;32.28;;;9.38;;
38693;SDS011;24447;43.460;25.744;2024-02-21T04:52:08;33.85;;;10.25;;
38693;SDS011;24447;43.460;25.744;2024-02-21T04:54:33;28.60;;;10.32;;
38693;SDS011;24447;43.460;25.744;2024-02-21T04:57:03;27.95;;;9.18;;
38693;SDS011;24447;43.460;25.744;2024-02-21T04:59:29;44.08;;;12.93;;
38693;SDS011;24447;43.460;25.744;2024-02-21T05:01:55;38.38;;;12.70;;
38693;SDS011;24447;43.460;25.744;2024-02-21T05:04:21;36.72;;;11.93;;
38693;SDS011;24447;43.460;25.744;2024-02-21T05:06:47;34.03;;;12.60;;
38693;SDS011;24447;43.460;25.744;2024-02-21T05:09:12;42.72;;;11.48;;
38693;SDS011;24447;43.460;25.744;2024-02-21T05:11:39;35.03;;;12.27;;
38693;SDS011;24447;43.460;25.744;2024-02-21T05:14:05;28.50;;;10.43;;
38693;SDS011;24447;43.460;25.744;2024-02-21T05:16:31;28.20;;;8.77;;
38693;SDS011;24447;43.460;25.744;2024-02-21T05:18:57;28.77;;;8.98;;
38693;SDS011;24447;43.460;25.744;2024-02-21T05:21:23;29.15;;;9.88;;
38693;SDS011;24447;43.460;25.744;2024-02-21T05:23:50;31.35;;;10.23;;
38693;SDS011;24447;43.460;25.744;2024-02-21T05:26:20;33.13;;;10.52;;
38693;SDS011;24447;43.460;25.744;2024-02-21T05:28:47;30.02;;;8.95;;
38693;SDS011;24447;43.460;25.744;2024-02-21T05:31:13;28.77;;;9.35;;
38693;SDS011;24447;43.460;25.744;2024-02-21T05:33:39;31.55;;;12.02;;
38693;SDS011;24447;43.460;25.744;2024-02-21T05:36:05;38.92;;;14.07;;
38693;SDS011;24447;43.460;25.744;2024-02-21T05:38:32;28.35;;;9.90;;
38693;SDS011;24447;43.460;25.744;2024-02-21T05:40:57;36.55;;;11.05;;
38693;SDS011;24447;43.460;25.744;2024-02-21T05:43:23;31.30;;;10.65;;
38693;SDS011;24447;43.460;25.744;2024-02-21T05:45:49;42.15;;;14.07;;
38693;SDS011;24447;43.460;25.744;2024-02-21T05:48:15;38.35;;;12.38;;
38693;SDS011;24447;43.460;25.744;2024-02-21T05:50:41;37.20;;;11.77;;
38693;SDS011;24447;43.460;25.744;2024-02-21T05:53:07;39.75;;;12.27;;
38693;SDS011;24447;43.460;25.744;2024-02-21T05:55:33;45.95;;;11.35;;
38693;SDS011;24447;43.460;25.744;2024-02-21T05:57:59;32.97;;;11.70;;
38693;SDS011;24447;43.460;25.744;2024-02-21T06:00:25;42.78;;;14.48;;
38693;SDS011;24447;43.460;25.744;2024-02-21T06:02:51;38.38;;;13.10;;
38693;SDS011;24447;43.460;25.744;2024-02-21T06:05:17;36.00;;;14.10;;
38693;SDS011;24447;43.460;25.744;2024-02-21T06:07:43;43.33;;;14.60;;
38693;SDS011;24447;43.460;25.744;2024-02-21T06:10:09;52.67;;;19.45;;
38693;SDS011;24447;43.460;25.744;2024-02-21T06:12:35;71.03;;;26.77;;
38693;SDS011;24447;43.460;25.744;2024-02-21T06:15:01;55.05;;;19.70;;
38693;SDS011;24447;43.460;25.744;2024-02-21T06:17:26;36.88;;;15.20;;
38693;SDS011;24447;43.460;25.744;2024-02-21T06:19:52;79.57;;;28.88;;
38693;SDS011;24447;43.460;25.744;2024-02-21T06:22:18;80.95;;;25.38;;
38693;SDS011;24447;43.460;25.744;2024-02-21T06:24:44;55.45;;;23.92;;
38693;SDS011;24447;43.460;25.744;2024-02-21T06:27:10;61.60;;;24.42;;
38693;SDS011;24447;43.460;25.744;2024-02-21T06:29:37;70.20;;;27.00;;
38693;SDS011;24447;43.460;25.744;2024-02-21T06:32:03;77.85;;;29.15;;
38693;SDS011;24447;43.460;25.744;2024-02-21T06:34:29;84.95;;;30.20;;
38693;SDS011;24447;43.460;25.744;2024-02-21T06:36:55;98.43;;;42.38;;
38693;SDS011;24447;43.460;25.744;2024-02-21T06:39:21;97.03;;;43.10;;
38693;SDS011;24447;43.460;25.744;2024-02-21T06:41:48;93.07;;;41.08;;
38693;SDS011;24447;43.460;25.744;2024-02-21T06:44:15;86.93;;;34.92;;
38693;SDS011;24447;43.460;25.744;2024-02-21T06:46:42;83.78;;;35.22;;
38693;SDS011;24447;43.460;25.744;2024-02-21T06:49:26;75.75;;;32.90;;
38693;SDS011;24447;43.460;25.744;2024-02-21T06:51:52;77.78;;;32.88;;
38693;SDS011;24447;43.460;25.744;2024-02-21T06:54:18;66.70;;;30.52;;
38693;SDS011;24447;43.460;25.744;2024-02-21T06:56:44;81.47;;;29.83;;
38693;SDS011;24447;43.460;25.744;2024-02-21T06:59:10;69.53;;;31.15;;
38693;SDS011;24447;43.460;25.744;2024-02-21T07:01:36;72.10;;;34.03;;
38693;SDS011;24447;43.460;25.744;2024-02-21T07:04:02;78.82;;;39.10;;
38693;SDS011;24447;43.460;25.744;2024-02-21T07:06:28;77.53;;;37.65;;
38693;SDS011;24447;43.460;25.744;2024-02-21T07:08:54;88.10;;;34.72;;
38693;SDS011;24447;43.460;25.744;2024-02-21T07:11:20;89.40;;;41.40;;
38693;SDS011;24447;43.460;25.744;2024-02-21T07:13:46;97.45;;;42.88;;
38693;SDS011;24447;43.460;25.744;2024-02-21T07:16:12;72.70;;;35.85;;
38693;SDS011;24447;43.460;25.744;2024-02-21T07:18:37;111.13;;;48.80;;
38693;SDS011;24447;43.460;25.744;2024-02-21T07:21:03;107.50;;;51.33;;
38693;SDS011;24447;43.460;25.744;2024-02-21T07:23:29;105.10;;;43.22;;
38693;SDS011;24447;43.460;25.744;2024-02-21T07:25:55;84.50;;;35.40;;
38693;SDS011;24447;43.460;25.744;2024-02-21T07:28:21;67.72;;;30.40;;
38693;SDS011;24447;43.460;25.744;2024-02-21T07:30:47;57.25;;;27.02;;
38693;SDS011;24447;43.460;25.744;2024-02-21T07:33:13;63.67;;;30.40;;
38693;SDS011;24447;43.460;25.744;2024-02-21T07:35:39;59.50;;;28.38;;
38693;SDS011;24447;43.460;25.744;2024-02-21T07:38:07;53.67;;;26.20;;
38693;SDS011;24447;43.460;25.744;2024-02-21T07:40:37;58.10;;;25.07;;
38693;SDS011;24447;43.460;25.744;2024-02-21T07:43:04;61.10;;;23.90;;
38693;SDS011;24447;43.460;25.744;2024-02-21T07:45:29;57.63;;;24.13;;
38693;SDS011;24447;43.460;25.744;2024-02-21T07:47:55;80.40;;;34.30;;
38693;SDS011;24447;43.460;25.744;2024-02-21T07:50:21;87.95;;;35.00;;
38693;SDS011;24447;43.460;25.744;2024-02-21T07:52:47;74.20;;;31.05;;
38693;SDS011;24447;43.460;25.744;2024-02-21T07:55:13;59.42;;;23.77;;
38693;SDS011;24447;43.460;25.744;2024-02-21T07:57:39;61.50;;;27.90;;
38693;SDS011;24447;43.460;25.744;2024-02-21T08:00:05;52.60;;;25.73;;
38693;SDS011;24447;43.460;25.744;2024-02-21T08:02:34;46.95;;;21.35;;
38693;SDS011;24447;43.460;25.744;2024-02-21T08:05:00;45.25;;;20.70;;
38693;SDS011;24447;43.460;25.744;2024-02-21T08:07:26;43.47;;;18.35;;
38693;SDS011;24447;43.460;25.744;2024-02-21T08:09:54;49.88;;;19.90;;
38693;SDS011;24447;43.460;25.744;2024-02-21T08:12:20;62.50;;;28.73;;
38693;SDS011;24447;43.460;25.744;2024-02-21T08:14:46;53.03;;;22.05;;
38693;SDS011;24447;43.460;25.744;2024-02-21T08:17:11;44.92;;;18.98;;
38693;SDS011;24447;43.460;25.744;2024-02-21T08:19:37;57.65;;;27.35;;
38693;SDS011;24447;43.460;25.744;2024-02-21T08:22:03;48.72;;;22.00;;
38693;SDS011;24447;43.460;25.744;2024-02-21T08:24:29;69.28;;;30.63;;
38693;SDS011;24447;43.460;25.744;2024-02-21T08:26:55;55.95;;;26.10;;
38693;SDS011;24447;43.460;25.744;2024-02-21T08:29:21;60.78;;;27.80;;
38693;SDS011;24447;43.460;25.744;2024-02-21T08:31:47;51.00;;;20.90;;
38693;SDS011;24447;43.460;25.744;2024-02-21T08:34:14;47.70;;;18.92;;
38693;SDS011;24447;43.460;25.744;2024-02-21T08:36:40;47.80;;;18.55;;
38693;SDS011;24447;43.460;25.744;2024-02-21T08:39:05;40.63;;;15.38;;
38693;SDS011;24447;43.460;25.744;2024-02-21T08:41:32;54.70;;;25.98;;
38693;SDS011;24447;43.460;25.744;2024-02-21T08:44:00;45.03;;;22.13;;
38693;SDS011;24447;43.460;25.744;2024-02-21T08:46:26;42.72;;;16.63;;
38693;SDS011;24447;43.460;25.744;2024-02-21T08:48:53;33.42;;;13.02;;
38693;SDS011;24447;43.460;25.744;2024-02-21T08:51:19;39.17;;;14.77;;
38693;SDS011;24447;43.460;25.744;2024-02-21T08:53:45;37.53;;;13.65;;
38693;SDS011;24447;43.460;25.744;2024-02-21T08:56:12;35.63;;;13.02;;
38693;SDS011;24447;43.460;25.744;2024-02-21T08:58:39;26.35;;;11.85;;
38693;SDS011;24447;43.460;25.744;2024-02-21T09:01:05;33.83;;;11.85;;
38693;SDS011;24447;43.460;25.744;2024-02-21T09:03:35;42.25;;;15.90;;
38693;SDS011;24447;43.460;25.744;2024-02-21T09:06:02;28.30;;;12.57;;
38693;SDS011;24447;43.460;25.744;2024-02-21T09:08:28;23.55;;;10.45;;
38693;SDS011;24447;43.460;25.744;2024-02-21T09:10:54;27.05;;;12.13;;
38693;SDS011;24447;43.460;25.744;2024-02-21T09:13:20;25.35;;;11.77;;
38693;SDS011;24447;43.460;25.744;2024-02-21T09:15:47;25.50;;;11.02;;
38693;SDS011;24447;43.460;25.744;2024-02-21T09:18:14;39.83;;;11.65;;
38693;SDS011;24447;43.460;25.744;2024-02-21T09:20:40;26.40;;;10.73;;
38693;SDS011;24447;43.460;25.744;2024-02-21T09:23:06;15.73;;;8.00;;
38693;SDS011;24447;43.460;25.744;2024-02-21T09:25:32;27.40;;;9.18;;
38693;SDS011;24447;43.460;25.744;2024-02-21T09:27:58;21.25;;;9.38;;
38693;SDS011;24447;43.460;25.744;2024-02-21T09:30:24;20.75;;;7.97;;
38693;SDS011;24447;43.460;25.744;2024-02-21T09:32:50;19.10;;;7.97;;
38693;SDS011;24447;43.460;25.744;2024-02-21T09:35:16;21.15;;;7.43;;
38693;SDS011;24447;43.460;25.744;2024-02-21T09:37:41;19.90;;;7.18;;
38693;SDS011;24447;43.460;25.744;2024-02-21T09:40:07;17.30;;;7.22;;
38693;SDS011;24447;43.460;25.744;2024-02-21T09:42:37;15.80;;;5.57;;
38693;SDS011;24447;43.460;25.744;2024-02-21T09:50:34;16.90;;;6.43;;
38693;SDS011;24447;43.460;25.744;2024-02-21T09:53:01;18.95;;;6.70;;
38693;SDS011;24447;43.460;25.744;2024-02-21T09:55:28;16.80;;;6.65;;
38693;SDS011;24447;43.460;25.744;2024-02-21T09:57:57;17.67;;;6.03;;
38693;SDS011;24447;43.460;25.744;2024-02-21T10:00:23;14.70;;;5.65;;
38693;SDS011;24447;43.460;25.744;2024-02-21T10:02:49;18.58;;;6.78;;
38693;SDS011;24447;43.460;25.744;2024-02-21T10:05:15;17.60;;;7.00;;
38693;SDS011;24447;43.460;25.744;2024-02-21T10:07:42;18.42;;;6.82;;
38693;SDS011;24447;43.460;25.744;2024-02-21T10:10:09;18.40;;;6.57;;
38693;SDS011;24447;43.460;25.744;2024-02-21T10:12:35;20.13;;;6.65;;
38693;SDS011;24447;43.460;25.744;2024-02-21T10:15:02;24.88;;;7.72;;
38693;SDS011;24447;43.460;25.744;2024-02-21T10:17:28;17.92;;;6.50;;
38693;SDS011;24447;43.460;25.744;2024-02-21T10:19:54;19.67;;;6.95;;
38693;SDS011;24447;43.460;25.744;2024-02-21T10:22:20;18.30;;;7.15;;
38693;SDS011;24447;43.460;25.744;2024-02-21T10:24:46;17.73;;;6.55;;
38693;SDS011;24447;43.460;25.744;2024-02-21T10:27:12;20.30;;;7.95;;
38693;SDS011;24447;43.460;25.744;2024-02-21T10:29:38;19.17;;;6.88;;
38693;SDS011;24447;43.460;25.744;2024-02-21T10:32:08;18.05;;;6.90;;
38693;SDS011;24447;43.460;25.744;2024-02-21T10:34:36;19.75;;;8.48;;
38693;SDS011;24447;43.460;25.744;2024-02-21T10:37:03;19.90;;;8.80;;
38693;SDS011;24447;43.460;25.744;2024-02-21T10:39:33;20.27;;;7.63;;
38693;SDS011;24447;43.460;25.744;2024-02-21T10:42:01;19.48;;;7.40;;
38693;SDS011;24447;43.460;25.744;2024-02-21T10:44:33;20.88;;;7.57;;
38693;SDS011;24447;43.460;25.744;2024-02-21T10:47:00;19.10;;;7.78;;
38693;SDS011;24447;43.460;25.744;2024-02-21T10:49:44;17.50;;;7.38;;
38693;SDS011;24447;43.460;25.744;2024-02-21T10:52:13;16.30;;;6.13;;
38693;SDS011;24447;43.460;25.744;2024-02-21T10:54:48;16.27;;;6.30;;
38693;SDS011;24447;43.460;25.744;2024-02-21T10:57:37;20.08;;;5.72;;
38693;SDS011;24447;43.460;25.744;2024-02-21T11:00:03;19.10;;;7.97;;
38693;SDS011;24447;43.460;25.744;2024-02-21T11:02:33;19.10;;;7.57;;
38693;SDS011;24447;43.460;25.744;2024-02-21T11:04:59;16.85;;;6.47;;
38693;SDS011;24447;43.460;25.744;2024-02-21T11:07:28;19.63;;;6.22;;
38693;SDS011;24447;43.460;25.744;2024-02-21T11:09:55;16.27;;;6.00;;
38693;SDS011;24447;43.460;25.744;2024-02-21T11:12:21;14.88;;;5.57;;
38693;SDS011;24447;43.460;25.744;2024-02-21T11:14:47;14.35;;;5.28;;
38693;SDS011;24447;43.460;25.744;2024-02-21T11:17:17;18.33;;;5.80;;
38693;SDS011;24447;43.460;25.744;2024-02-21T11:19:43;10.95;;;4.90;;
38693;SDS011;24447;43.460;25.744;2024-02-21T11:22:19;13.82;;;4.72;;
38693;SDS011;24447;43.460;25.744;2024-02-21T11:24:47;13.35;;;4.10;;
38693;SDS011;24447;43.460;25.744;2024-02-21T11:27:14;17.02;;;6.25;;
38693;SDS011;24447;43.460;25.744;2024-02-21T11:29:47;12.90;;;5.05;;
38693;SDS011;24447;43.460;25.744;2024-02-21T11:32:18;16.25;;;7.20;;
38693;SDS011;24447;43.460;25.744;2024-02-21T11:34:54;15.52;;;6.18;;
38693;SDS011;24447;43.460;25.744;2024-02-21T11:37:29;17.23;;;5.28;;
38693;SDS011;24447;43.460;25.744;2024-02-21T11:39:55;13.98;;;5.50;;
38693;SDS011;24447;43.460;25.744;2024-02-21T11:42:22;13.80;;;5.35;;
38693;SDS011;24447;43.460;25.744;2024-02-21T11:44:48;15.27;;;4.30;;
38693;SDS011;24447;43.460;25.744;2024-02-21T11:47:14;9.05;;;4.40;;
38693;SDS011;24447;43.460;25.744;2024-02-21T11:49:45;14.65;;;6.32;;
38693;SDS011;24447;43.460;25.744;2024-02-21T11:52:14;12.93;;;4.80;;
38693;SDS011;24447;43.460;25.744;2024-02-21T11:54:40;16.40;;;5.95;;
38693;SDS011;24447;43.460;25.744;2024-02-21T11:57:06;15.00;;;4.93;;
38693;SDS011;24447;43.460;25.744;2024-02-21T11:59:33;23.80;;;8.45;;
38693;SDS011;24447;43.460;25.744;2024-02-21T12:02:02;20.63;;;8.50;;
38693;SDS011;24447;43.460;25.744;2024-02-21T12:04:29;18.08;;;7.03;;
38693;SDS011;24447;43.460;25.744;2024-02-21T12:06:58;20.33;;;6.63;;
38693;SDS011;24447;43.460;25.744;2024-02-21T12:09:24;20.27;;;7.90;;
38693;SDS011;24447;43.460;25.744;2024-02-21T12:11:58;15.43;;;6.07;;
38693;SDS011;24447;43.460;25.744;2024-02-21T12:14:25;15.27;;;5.28;;
38693;SDS011;24447;43.460;25.744;2024-02-21T12:16:51;13.38;;;6.18;;
38693;SDS011;24447;43.460;25.744;2024-02-21T12:19:17;26.65;;;8.10;;
38693;SDS011;24447;43.460;25.744;2024-02-21T12:21:43;15.35;;;6.10;;
38693;SDS011;24447;43.460;25.744;2024-02-21T12:26:42;21.95;;;7.90;;
38693;SDS011;24447;43.460;25.744;2024-02-21T12:29:08;12.38;;;5.63;;
38693;SDS011;24447;43.460;25.744;2024-02-21T12:31:35;15.35;;;6.82;;
38693;SDS011;24447;43.460;25.744;2024-02-21T12:34:02;15.80;;;7.07;;
38693;SDS011;24447;43.460;25.744;2024-02-21T12:36:29;19.30;;;6.35;;
38693;SDS011;24447;43.460;25.744;2024-02-21T12:38:55;25.27;;;6.82;;
38693;SDS011;24447;43.460;25.744;2024-02-21T12:41:21;31.70;;;11.38;;
38693;SDS011;24447;43.460;25.744;2024-02-21T12:43:48;29.27;;;11.82;;
38693;SDS011;24447;43.460;25.744;2024-02-21T12:46:14;16.50;;;6.07;;
38693;SDS011;24447;43.460;25.744;2024-02-21T12:48:39;20.27;;;7.95;;
38693;SDS011;24447;43.460;25.744;2024-02-21T12:51:05;23.02;;;8.55;;
38693;SDS011;24447;43.460;25.744;2024-02-21T12:53:31;14.23;;;5.82;;
38693;SDS011;24447;43.460;25.744;2024-02-21T12:55:57;16.95;;;7.10;;
38693;SDS011;24447;43.460;25.744;2024-02-21T12:58:23;16.05;;;6.43;;
38693;SDS011;24447;43.460;25.744;2024-02-21T13:00:49;17.25;;;6.07;;
38693;SDS011;24447;43.460;25.744;2024-02-21T13:03:15;13.43;;;6.03;;
38693;SDS011;24447;43.460;25.744;2024-02-21T13:05:41;20.48;;;8.07;;
38693;SDS011;24447;43.460;25.744;2024-02-21T13:08:07;18.02;;;6.28;;
38693;SDS011;24447;43.460;25.744;2024-02-21T13:10:34;17.60;;;6.45;;
38693;SDS011;24447;43.460;25.744;2024-02-21T13:13:00;14.88;;;6.00;;
38693;SDS011;24447;43.460;25.744;2024-02-21T13:15:29;13.18;;;5.68;;
38693;SDS011;24447;43.460;25.744;2024-02-21T13:17:58;16.20;;;6.88;;
38693;SDS011;24447;43.460;25.744;2024-02-21T13:20:27;14.70;;;5.72;;
38693;SDS011;24447;43.460;25.744;2024-02-21T13:22:54;18.88;;;7.00;;
38693;SDS011;24447;43.460;25.744;2024-02-21T13:25:19;16.48;;;6.95;;
38693;SDS011;24447;43.460;25.744;2024-02-21T13:27:46;15.18;;;6.10;;
38693;SDS011;24447;43.460;25.744;2024-02-21T13:30:13;16.83;;;6.03;;
38693;SDS011;24447;43.460;25.744;2024-02-21T13:32:41;13.32;;;5.78;;
38693;SDS011;24447;43.460;25.744;2024-02-21T13:35:08;18.77;;;6.55;;
38693;SDS011;24447;43.460;25.744;2024-02-21T13:37:36;18.50;;;6.75;;
38693;SDS011;24447;43.460;25.744;2024-02-21T13:40:03;19.48;;;7.30;;
38693;SDS011;24447;43.460;25.744;2024-02-21T13:42:29;20.33;;;7.13;;
38693;SDS011;24447;43.460;25.744;2024-02-21T13:44:55;17.83;;;6.03;;
38693;SDS011;24447;43.460;25.744;2024-02-21T13:47:21;13.07;;;5.75;;
38693;SDS011;24447;43.460;25.744;2024-02-21T13:49:47;12.77;;;5.07;;
38693;SDS011;24447;43.460;25.744;2024-02-21T13:52:13;18.30;;;6.32;;
38693;SDS011;24447;43.460;25.744;2024-02-21T13:54:39;12.35;;;5.40;;
38693;SDS011;24447;43.460;25.744;2024-02-21T13:57:07;12.88;;;5.18;;
38693;SDS011;24447;43.460;25.744;2024-02-21T13:59:33;9.00;;;4.57;;
38693;SDS011;24447;43.460;25.744;2024-02-21T14:02:01;20.42;;;6.20;;
38693;SDS011;24447;43.460;25.744;2024-02-21T14:04:27;17.58;;;5.35;;
38693;SDS011;24447;43.460;25.744;2024-02-21T14:06:55;14.27;;;6.03;;
38693;SDS011;24447;43.460;25.744;2024-02-21T14:09:21;16.00;;;5.72;;
38693;SDS011;24447;43.460;25.744;2024-02-21T14:11:47;14.65;;;6.05;;
38693;SDS011;24447;43.460;25.744;2024-02-21T14:14:12;15.00;;;5.40;;
38693;SDS011;24447;43.460;25.744;2024-02-21T14:16:40;12.48;;;4.80;;
38693;SDS011;24447;43.460;25.744;2024-02-21T14:19:06;18.75;;;5.50;;
38693;SDS011;24447;43.460;25.744;2024-02-21T14:21:33;7.93;;;4.47;;